sensor_id;sensor_type;location;lat;lon;timestamp;temperature;humidity
20398;DHT22;10358;49.590;11.030;2022-09-09T00:04:34;13.90;99.90
20398;DHT22;10358;49.590;11.030;2022-09-09T00:07:55;13.80;99.90
20398;DHT22;10358;49.590;11.030;2022-09-09T00:10:37;13.80;99.90
20398;DHT22;10358;49.590;11.030;2022-09-09T00:16:27;13.90;99.90
20398;DHT22;10358;49.590;11.030;2022-09-09T00:21:33;13.90;99.90
20398;DHT22;10358;49.590;11.030;2022-09-09T00:24:08;13.90;99.90
20398;DHT22;10358;49.590;11.030;2022-09-09T00:26:40;13.90;99.90
20398;DHT22;10358;49.590;11.030;2022-09-09T00:31:54;13.70;99.90
20398;DHT22;10358;49.590;11.030;2022-09-09T00:34:23;13.70;99.90
20398;DHT22;10358;49.590;11.030;2022-09-09T00:36:52;13.70;99.90
20398;DHT22;10358;49.590;11.030;2022-09-09T00:39:34;13.70;99.90
20398;DHT22;10358;49.590;11.030;2022-09-09T00:44:37;13.70;99.90
20398;DHT22;10358;49.590;11.030;2022-09-09T00:52:57;13.50;99.90
20398;DHT22;10358;49.590;11.030;2022-09-09T00:57:57;13.50;99.90
20398;DHT22;10358;49.590;11.030;2022-09-09T01:00:25;13.50;99.90
20398;DHT22;10358;49.590;11.030;2022-09-09T01:05:46;13.50;99.90
20398;DHT22;10358;49.590;11.030;2022-09-09T01:08:39;13.50;99.90
20398;DHT22;10358;49.590;11.030;2022-09-09T01:11:14;13.50;99.90
20398;DHT22;10358;49.590;11.030;2022-09-09T01:13:44;13.40;99.90
20398;DHT22;10358;49.590;11.030;2022-09-09T01:16:12;13.40;99.90
20398;DHT22;10358;49.590;11.030;2022-09-09T01:18:44;13.30;99.90
20398;DHT22;10358;49.590;11.030;2022-09-09T01:27:02;13.40;99.90
20398;DHT22;10358;49.590;11.030;2022-09-09T01:29:29;13.40;99.90
20398;DHT22;10358;49.590;11.030;2022-09-09T01:32:01;13.40;99.90
20398;DHT22;10358;49.590;11.030;2022-09-09T01:34:38;13.40;99.90
20398;DHT22;10358;49.590;11.030;2022-09-09T01:37:07;13.40;99.90
20398;DHT22;10358;49.590;11.030;2022-09-09T01:39:35;13.40;99.90
20398;DHT22;10358;49.590;11.030;2022-09-09T01:42:03;13.40;99.90
20398;DHT22;10358;49.590;11.030;2022-09-09T01:44:30;13.40;99.90
20398;DHT22;10358;49.590;11.030;2022-09-09T01:46:56;13.40;99.90
20398;DHT22;10358;49.590;11.030;2022-09-09T01:49:22;13.50;99.90
20398;DHT22;10358;49.590;11.030;2022-09-09T01:51:52;13.50;99.90
20398;DHT22;10358;49.590;11.030;2022-09-09T01:54:20;13.50;99.90
20398;DHT22;10358;49.590;11.030;2022-09-09T01:57:04;13.50;99.90
20398;DHT22;10358;49.590;11.030;2022-09-09T02:02:19;13.50;99.90
20398;DHT22;10358;49.590;11.030;2022-09-09T02:04:52;13.40;99.90
20398;DHT22;10358;49.590;11.030;2022-09-09T02:12:42;13.40;99.90
20398;DHT22;10358;49.590;11.030;2022-09-09T02:15:21;13.40;99.90
20398;DHT22;10358;49.590;11.030;2022-09-09T02:17:50;13.50;99.90
20398;DHT22;10358;49.590;11.030;2022-09-09T02:20:18;13.40;99.90
20398;DHT22;10358;49.590;11.030;2022-09-09T02:22:47;13.50;99.90
20398;DHT22;10358;49.590;11.030;2022-09-09T02:25:16;13.50;99.90
20398;DHT22;10358;49.590;11.030;2022-09-09T02:27:45;13.50;99.90
20398;DHT22;10358;49.590;11.030;2022-09-09T02:30:12;13.50;99.90
20398;DHT22;10358;49.590;11.030;2022-09-09T02:32:38;13.60;99.90
20398;DHT22;10358;49.590;11.030;2022-09-09T02:35:10;13.50;99.90
20398;DHT22;10358;49.590;11.030;2022-09-09T02:37:39;13.50;99.90
20398;DHT22;10358;49.590;11.030;2022-09-09T02:40:06;13.60;99.90
20398;DHT22;10358;49.590;11.030;2022-09-09T02:42:41;13.60;99.90
20398;DHT22;10358;49.590;11.030;2022-09-09T02:45:10;13.50;99.90
20398;DHT22;10358;49.590;11.030;2022-09-09T02:47:41;13.60;99.90
20398;DHT22;10358;49.590;11.030;2022-09-09T02:57:55;13.80;99.90
20398;DHT22;10358;49.590;11.030;2022-09-09T03:00:26;13.80;99.90
20398;DHT22;10358;49.590;11.030;2022-09-09T03:02:53;13.80;99.90
20398;DHT22;10358;49.590;11.030;2022-09-09T03:05:20;13.80;99.90
20398;DHT22;10358;49.590;11.030;2022-09-09T03:07:46;13.80;99.90
20398;DHT22;10358;49.590;11.030;2022-09-09T03:10:12;13.70;99.90
20398;DHT22;10358;49.590;11.030;2022-09-09T03:12:37;13.60;99.90
20398;DHT22;10358;49.590;11.030;2022-09-09T03:15:04;13.60;99.90
20398;DHT22;10358;49.590;11.030;2022-09-09T03:17:30;13.60;99.90
20398;DHT22;10358;49.590;11.030;2022-09-09T03:19:56;13.70;99.90
20398;DHT22;10358;49.590;11.030;2022-09-09T03:22:24;13.70;99.90
20398;DHT22;10358;49.590;11.030;2022-09-09T03:24:51;13.70;99.90
20398;DHT22;10358;49.590;11.030;2022-09-09T03:27:17;13.70;99.90
20398;DHT22;10358;49.590;11.030;2022-09-09T03:29:44;13.70;99.90
20398;DHT22;10358;49.590;11.030;2022-09-09T03:32:10;13.80;99.90
20398;DHT22;10358;49.590;11.030;2022-09-09T03:34:36;13.80;99.90
20398;DHT22;10358;49.590;11.030;2022-09-09T03:37:04;13.70;99.90
20398;DHT22;10358;49.590;11.030;2022-09-09T03:39:30;13.80;99.90
20398;DHT22;10358;49.590;11.030;2022-09-09T03:41:56;13.80;99.90
20398;DHT22;10358;49.590;11.030;2022-09-09T03:44:22;13.80;99.90
20398;DHT22;10358;49.590;11.030;2022-09-09T03:46:47;13.80;99.90
20398;DHT22;10358;49.590;11.030;2022-09-09T03:49:13;13.80;99.90
20398;DHT22;10358;49.590;11.030;2022-09-09T03:51:38;13.90;99.90
20398;DHT22;10358;49.590;11.030;2022-09-09T03:54:05;13.80;99.90
20398;DHT22;10358;49.590;11.030;2022-09-09T03:56:34;13.90;99.90
20398;DHT22;10358;49.590;11.030;2022-09-09T03:58:59;13.80;99.90
20398;DHT22;10358;49.590;11.030;2022-09-09T04:01:25;13.80;99.90
20398;DHT22;10358;49.590;11.030;2022-09-09T04:03:51;13.90;99.90
20398;DHT22;10358;49.590;11.030;2022-09-09T04:06:17;13.90;99.90
20398;DHT22;10358;49.590;11.030;2022-09-09T04:08:43;13.90;99.90
20398;DHT22;10358;49.590;11.030;2022-09-09T04:11:09;13.90;99.90
20398;DHT22;10358;49.590;11.030;2022-09-09T04:13:36;13.90;99.90
20398;DHT22;10358;49.590;11.030;2022-09-09T04:16:04;13.90;99.90
20398;DHT22;10358;49.590;11.030;2022-09-09T04:18:30;14.00;99.90
20398;DHT22;10358;49.590;11.030;2022-09-09T04:20:56;14.00;99.90
20398;DHT22;10358;49.590;11.030;2022-09-09T04:23:23;14.10;99.90
20398;DHT22;10358;49.590;11.030;2022-09-09T04:25:53;14.10;99.90
20398;DHT22;10358;49.590;11.030;2022-09-09T04:28:21;14.10;99.90
20398;DHT22;10358;49.590;11.030;2022-09-09T04:30:47;14.10;99.90
20398;DHT22;10358;49.590;11.030;2022-09-09T04:33:14;14.20;99.90
20398;DHT22;10358;49.590;11.030;2022-09-09T04:35:47;14.20;99.90
20398;DHT22;10358;49.590;11.030;2022-09-09T04:38:14;14.20;99.90
20398;DHT22;10358;49.590;11.030;2022-09-09T04:40:48;14.30;99.90
20398;DHT22;10358;49.590;11.030;2022-09-09T04:43:15;14.30;99.90
20398;DHT22;10358;49.590;11.030;2022-09-09T04:45:41;14.30;99.90
20398;DHT22;10358;49.590;11.030;2022-09-09T04:48:08;14.40;99.90
20398;DHT22;10358;49.590;11.030;2022-09-09T04:50:35;14.40;99.90
20398;DHT22;10358;49.590;11.030;2022-09-09T04:53:02;14.40;99.90
20398;DHT22;10358;49.590;11.030;2022-09-09T04:55:27;14.40;99.90
20398;DHT22;10358;49.590;11.030;2022-09-09T04:57:53;14.50;99.90
20398;DHT22;10358;49.590;11.030;2022-09-09T05:00:19;14.50;99.90
20398;DHT22;10358;49.590;11.030;2022-09-09T05:02:44;14.50;99.90
20398;DHT22;10358;49.590;11.030;2022-09-09T05:05:10;14.60;99.90
20398;DHT22;10358;49.590;11.030;2022-09-09T05:07:36;14.60;99.90
20398;DHT22;10358;49.590;11.030;2022-09-09T05:10:02;14.50;99.90
20398;DHT22;10358;49.590;11.030;2022-09-09T05:12:30;14.60;99.90
20398;DHT22;10358;49.590;11.030;2022-09-09T05:14:56;14.50;99.90
20398;DHT22;10358;49.590;11.030;2022-09-09T05:17:22;14.50;99.90
20398;DHT22;10358;49.590;11.030;2022-09-09T05:19:47;14.50;99.90
20398;DHT22;10358;49.590;11.030;2022-09-09T05:22:19;14.50;99.90
20398;DHT22;10358;49.590;11.030;2022-09-09T05:24:45;14.50;99.90
20398;DHT22;10358;49.590;11.030;2022-09-09T05:27:11;14.60;99.90
20398;DHT22;10358;49.590;11.030;2022-09-09T05:29:37;14.60;99.90
20398;DHT22;10358;49.590;11.030;2022-09-09T05:32:04;14.70;99.90
20398;DHT22;10358;49.590;11.030;2022-09-09T05:34:29;14.70;99.90
20398;DHT22;10358;49.590;11.030;2022-09-09T05:36:55;14.70;99.90
20398;DHT22;10358;49.590;11.030;2022-09-09T05:39:20;14.80;99.90
20398;DHT22;10358;49.590;11.030;2022-09-09T05:41:46;14.90;99.90
20398;DHT22;10358;49.590;11.030;2022-09-09T05:44:12;14.90;99.90
20398;DHT22;10358;49.590;11.030;2022-09-09T05:46:38;14.90;99.90
20398;DHT22;10358;49.590;11.030;2022-09-09T05:49:04;15.00;99.90
20398;DHT22;10358;49.590;11.030;2022-09-09T05:51:31;15.10;99.90
20398;DHT22;10358;49.590;11.030;2022-09-09T05:53:57;15.10;99.90
20398;DHT22;10358;49.590;11.030;2022-09-09T05:56:27;15.20;99.90
20398;DHT22;10358;49.590;11.030;2022-09-09T05:58:54;15.20;99.90
20398;DHT22;10358;49.590;11.030;2022-09-09T06:01:22;15.30;99.90
20398;DHT22;10358;49.590;11.030;2022-09-09T06:03:49;15.30;99.90
20398;DHT22;10358;49.590;11.030;2022-09-09T06:06:17;15.40;99.90
20398;DHT22;10358;49.590;11.030;2022-09-09T06:08:44;15.50;99.90
20398;DHT22;10358;49.590;11.030;2022-09-09T06:11:13;15.50;99.90
20398;DHT22;10358;49.590;11.030;2022-09-09T06:13:39;15.60;99.90
20398;DHT22;10358;49.590;11.030;2022-09-09T06:16:13;15.60;99.90
20398;DHT22;10358;49.590;11.030;2022-09-09T06:18:39;15.70;99.90
20398;DHT22;10358;49.590;11.030;2022-09-09T06:21:06;15.70;99.90
20398;DHT22;10358;49.590;11.030;2022-09-09T06:23:35;15.70;99.90
20398;DHT22;10358;49.590;11.030;2022-09-09T06:26:22;15.80;99.90
20398;DHT22;10358;49.590;11.030;2022-09-09T06:28:50;15.80;99.90
20398;DHT22;10358;49.590;11.030;2022-09-09T06:31:17;15.90;99.90
20398;DHT22;10358;49.590;11.030;2022-09-09T06:33:47;15.90;99.90
20398;DHT22;10358;49.590;11.030;2022-09-09T06:36:20;16.10;99.90
20398;DHT22;10358;49.590;11.030;2022-09-09T06:38:46;16.20;99.90
20398;DHT22;10358;49.590;11.030;2022-09-09T06:41:13;16.30;99.90
20398;DHT22;10358;49.590;11.030;2022-09-09T06:43:39;16.30;99.90
20398;DHT22;10358;49.590;11.030;2022-09-09T06:46:12;16.40;99.90
20398;DHT22;10358;49.590;11.030;2022-09-09T06:48:42;16.50;99.90
20398;DHT22;10358;49.590;11.030;2022-09-09T06:53:35;16.70;99.90
20398;DHT22;10358;49.590;11.030;2022-09-09T06:58:38;17.00;99.90
20398;DHT22;10358;49.590;11.030;2022-09-09T07:01:08;17.10;99.90
20398;DHT22;10358;49.590;11.030;2022-09-09T07:03:34;17.10;99.90
20398;DHT22;10358;49.590;11.030;2022-09-09T07:06:00;17.20;99.90
20398;DHT22;10358;49.590;11.030;2022-09-09T07:08:26;17.30;99.90
20398;DHT22;10358;49.590;11.030;2022-09-09T07:10:52;17.40;99.90
20398;DHT22;10358;49.590;11.030;2022-09-09T07:13:26;17.40;99.90
20398;DHT22;10358;49.590;11.030;2022-09-09T07:15:52;17.30;99.90
20398;DHT22;10358;49.590;11.030;2022-09-09T07:18:19;17.30;99.90
20398;DHT22;10358;49.590;11.030;2022-09-09T07:20:55;17.30;99.90
20398;DHT22;10358;49.590;11.030;2022-09-09T07:23:23;17.40;99.90
20398;DHT22;10358;49.590;11.030;2022-09-09T07:25:48;17.50;99.90
20398;DHT22;10358;49.590;11.030;2022-09-09T07:28:14;17.60;99.90
20398;DHT22;10358;49.590;11.030;2022-09-09T07:30:40;17.60;99.90
20398;DHT22;10358;49.590;11.030;2022-09-09T07:33:06;17.70;99.90
20398;DHT22;10358;49.590;11.030;2022-09-09T07:35:31;17.70;99.90
20398;DHT22;10358;49.590;11.030;2022-09-09T07:37:57;17.70;99.90
20398;DHT22;10358;49.590;11.030;2022-09-09T07:40:24;17.80;99.90
20398;DHT22;10358;49.590;11.030;2022-09-09T07:42:50;17.80;99.90
20398;DHT22;10358;49.590;11.030;2022-09-09T07:45:15;17.90;99.90
20398;DHT22;10358;49.590;11.030;2022-09-09T07:47:41;18.10;99.90
20398;DHT22;10358;49.590;11.030;2022-09-09T07:50:08;18.20;99.90
20398;DHT22;10358;49.590;11.030;2022-09-09T07:52:35;18.40;99.90
20398;DHT22;10358;49.590;11.030;2022-09-09T07:55:01;18.60;99.90
20398;DHT22;10358;49.590;11.030;2022-09-09T07:57:28;18.80;99.90
20398;DHT22;10358;49.590;11.030;2022-09-09T07:59:55;19.10;99.90
20398;DHT22;10358;49.590;11.030;2022-09-09T08:02:22;19.40;99.90
20398;DHT22;10358;49.590;11.030;2022-09-09T08:04:48;19.50;99.90
20398;DHT22;10358;49.590;11.030;2022-09-09T08:07:13;19.50;99.90
20398;DHT22;10358;49.590;11.030;2022-09-09T08:09:39;19.40;99.90
20398;DHT22;10358;49.590;11.030;2022-09-09T08:12:05;19.40;99.90
20398;DHT22;10358;49.590;11.030;2022-09-09T08:14:33;19.20;99.80
20398;DHT22;10358;49.590;11.030;2022-09-09T08:16:59;19.20;99.50
20398;DHT22;10358;49.590;11.030;2022-09-09T08:19:25;19.20;99.20
20398;DHT22;10358;49.590;11.030;2022-09-09T08:21:51;19.30;99.20
20398;DHT22;10358;49.590;11.030;2022-09-09T08:24:17;19.30;98.60
20398;DHT22;10358;49.590;11.030;2022-09-09T08:26:47;19.30;98.20
20398;DHT22;10358;49.590;11.030;2022-09-09T08:29:14;19.20;98.00
20398;DHT22;10358;49.590;11.030;2022-09-09T08:31:43;19.30;98.00
20398;DHT22;10358;49.590;11.030;2022-09-09T08:34:09;19.30;97.80
20398;DHT22;10358;49.590;11.030;2022-09-09T08:36:38;19.30;97.50
20398;DHT22;10358;49.590;11.030;2022-09-09T08:39:05;19.40;97.30
20398;DHT22;10358;49.590;11.030;2022-09-09T08:41:53;19.40;97.10
20398;DHT22;10358;49.590;11.030;2022-09-09T08:58:17;19.70;94.90
20398;DHT22;10358;49.590;11.030;2022-09-09T09:06:39;20.00;93.70
20398;DHT22;10358;49.590;11.030;2022-09-09T09:09:22;20.00;93.20
20398;DHT22;10358;49.590;11.030;2022-09-09T09:11:55;20.20;92.50
20398;DHT22;10358;49.590;11.030;2022-09-09T09:14:30;20.20;92.10
20398;DHT22;10358;49.590;11.030;2022-09-09T09:17:19;20.30;90.70
20398;DHT22;10358;49.590;11.030;2022-09-09T09:19:47;20.40;90.10
20398;DHT22;10358;49.590;11.030;2022-09-09T09:25:25;20.70;90.00
20398;DHT22;10358;49.590;11.030;2022-09-09T09:27:56;21.00;88.10
20398;DHT22;10358;49.590;11.030;2022-09-09T09:30:25;21.30;86.80
20398;DHT22;10358;49.590;11.030;2022-09-09T09:32:59;21.60;83.70
20398;DHT22;10358;49.590;11.030;2022-09-09T09:35:27;21.90;80.50
20398;DHT22;10358;49.590;11.030;2022-09-09T09:37:53;22.00;80.00
20398;DHT22;10358;49.590;11.030;2022-09-09T09:40:21;22.10;78.20
20398;DHT22;10358;49.590;11.030;2022-09-09T09:42:55;22.00;76.20
20398;DHT22;10358;49.590;11.030;2022-09-09T09:45:34;21.80;76.90
20398;DHT22;10358;49.590;11.030;2022-09-09T09:48:06;21.70;76.80
20398;DHT22;10358;49.590;11.030;2022-09-09T09:50:33;21.70;77.20
20398;DHT22;10358;49.590;11.030;2022-09-09T09:53:05;21.70;77.00
20398;DHT22;10358;49.590;11.030;2022-09-09T09:55:33;21.70;74.90
20398;DHT22;10358;49.590;11.030;2022-09-09T09:58:13;21.70;75.10
20398;DHT22;10358;49.590;11.030;2022-09-09T10:00:49;21.80;75.10
20398;DHT22;10358;49.590;11.030;2022-09-09T10:03:35;22.00;74.30
20398;DHT22;10358;49.590;11.030;2022-09-09T10:06:05;22.10;73.90
20398;DHT22;10358;49.590;11.030;2022-09-09T10:08:34;22.30;73.70
20398;DHT22;10358;49.590;11.030;2022-09-09T10:18:49;22.60;71.20
20398;DHT22;10358;49.590;11.030;2022-09-09T10:30:09;22.30;71.60
20398;DHT22;10358;49.590;11.030;2022-09-09T10:46:30;22.70;68.00
20398;DHT22;10358;49.590;11.030;2022-09-09T10:52:20;23.10;66.80
20398;DHT22;10358;49.590;11.030;2022-09-09T10:57:26;23.20;66.60
20398;DHT22;10358;49.590;11.030;2022-09-09T11:00:01;23.10;66.30
20398;DHT22;10358;49.590;11.030;2022-09-09T11:02:31;23.00;67.30
20398;DHT22;10358;49.590;11.030;2022-09-09T11:05:04;22.90;65.30
20398;DHT22;10358;49.590;11.030;2022-09-09T11:07:40;22.80;65.60
20398;DHT22;10358;49.590;11.030;2022-09-09T11:10:29;22.80;65.80
20398;DHT22;10358;49.590;11.030;2022-09-09T11:13:03;22.70;65.90
20398;DHT22;10358;49.590;11.030;2022-09-09T11:15:36;22.60;66.10
20398;DHT22;10358;49.590;11.030;2022-09-09T11:18:08;22.60;65.70
20398;DHT22;10358;49.590;11.030;2022-09-09T11:20:36;22.60;65.20
20398;DHT22;10358;49.590;11.030;2022-09-09T11:23:13;22.60;65.00
20398;DHT22;10358;49.590;11.030;2022-09-09T11:25:57;22.70;64.70
20398;DHT22;10358;49.590;11.030;2022-09-09T11:31:17;22.90;64.10
20398;DHT22;10358;49.590;11.030;2022-09-09T11:40:15;22.90;61.10
20398;DHT22;10358;49.590;11.030;2022-09-09T11:42:42;22.80;60.30
20398;DHT22;10358;49.590;11.030;2022-09-09T11:45:19;22.90;59.40
20398;DHT22;10358;49.590;11.030;2022-09-09T11:47:57;23.00;59.50
20398;DHT22;10358;49.590;11.030;2022-09-09T11:52:49;23.30;57.20
20398;DHT22;10358;49.590;11.030;2022-09-09T11:55:30;23.40;56.90
20398;DHT22;10358;49.590;11.030;2022-09-09T12:00:41;23.60;57.20
20398;DHT22;10358;49.590;11.030;2022-09-09T12:05:59;23.60;55.20
20398;DHT22;10358;49.590;11.030;2022-09-09T12:08:28;23.60;56.00
20398;DHT22;10358;49.590;11.030;2022-09-09T12:10:58;23.60;56.00
20398;DHT22;10358;49.590;11.030;2022-09-09T12:13:28;23.70;56.30
20398;DHT22;10358;49.590;11.030;2022-09-09T12:15:57;23.90;55.00
20398;DHT22;10358;49.590;11.030;2022-09-09T12:18:24;24.00;53.70
20398;DHT22;10358;49.590;11.030;2022-09-09T12:21:06;24.10;53.60
20398;DHT22;10358;49.590;11.030;2022-09-09T12:23:43;24.30;53.60
20398;DHT22;10358;49.590;11.030;2022-09-09T12:29:20;24.70;52.90
20398;DHT22;10358;49.590;11.030;2022-09-09T12:31:56;25.00;51.60
20398;DHT22;10358;49.590;11.030;2022-09-09T12:34:46;25.20;50.90
20398;DHT22;10358;49.590;11.030;2022-09-09T12:37:29;25.30;48.60
20398;DHT22;10358;49.590;11.030;2022-09-09T12:40:53;25.30;48.90
20398;DHT22;10358;49.590;11.030;2022-09-09T12:42:47;25.20;48.40
20398;DHT22;10358;49.590;11.030;2022-09-09T12:45:21;25.00;47.60
20398;DHT22;10358;49.590;11.030;2022-09-09T12:50:33;24.20;50.00
20398;DHT22;10358;49.590;11.030;2022-09-09T12:53:33;23.30;53.20
20398;DHT22;10358;49.590;11.030;2022-09-09T12:56:08;22.40;55.90
20398;DHT22;10358;49.590;11.030;2022-09-09T12:58:36;21.80;57.60
20398;DHT22;10358;49.590;11.030;2022-09-09T13:01:04;21.30;59.40
20398;DHT22;10358;49.590;11.030;2022-09-09T13:03:31;20.80;64.60
20398;DHT22;10358;49.590;11.030;2022-09-09T13:06:09;19.50;75.90
20398;DHT22;10358;49.590;11.030;2022-09-09T13:08:35;18.20;98.10
20398;DHT22;10358;49.590;11.030;2022-09-09T13:11:04;16.90;99.90
20398;DHT22;10358;49.590;11.030;2022-09-09T13:13:36;16.10;99.90
20398;DHT22;10358;49.590;11.030;2022-09-09T13:16:04;15.70;99.90
20398;DHT22;10358;49.590;11.030;2022-09-09T13:18:34;15.40;99.90
20398;DHT22;10358;49.590;11.030;2022-09-09T13:21:01;15.10;99.90
20398;DHT22;10358;49.590;11.030;2022-09-09T13:23:32;15.00;99.90
20398;DHT22;10358;49.590;11.030;2022-09-09T13:26:00;15.00;99.90
20398;DHT22;10358;49.590;11.030;2022-09-09T13:28:29;14.80;99.90
20398;DHT22;10358;49.590;11.030;2022-09-09T13:30:57;14.80;99.90
20398;DHT22;10358;49.590;11.030;2022-09-09T13:33:31;14.80;99.90
20398;DHT22;10358;49.590;11.030;2022-09-09T13:36:07;15.10;99.90
20398;DHT22;10358;49.590;11.030;2022-09-09T13:38:37;15.40;99.90
20398;DHT22;10358;49.590;11.030;2022-09-09T13:41:05;15.50;99.90
20398;DHT22;10358;49.590;11.030;2022-09-09T13:43:36;15.50;99.90
20398;DHT22;10358;49.590;11.030;2022-09-09T13:46:05;15.40;99.90
20398;DHT22;10358;49.590;11.030;2022-09-09T13:48:31;15.40;99.90
20398;DHT22;10358;49.590;11.030;2022-09-09T13:50:58;15.50;99.90
20398;DHT22;10358;49.590;11.030;2022-09-09T13:53:24;15.60;99.90
20398;DHT22;10358;49.590;11.030;2022-09-09T13:55:50;15.60;99.90
20398;DHT22;10358;49.590;11.030;2022-09-09T13:58:17;15.80;99.90
20398;DHT22;10358;49.590;11.030;2022-09-09T14:00:44;15.70;99.90
20398;DHT22;10358;49.590;11.030;2022-09-09T14:03:10;15.90;99.90
20398;DHT22;10358;49.590;11.030;2022-09-09T14:05:36;16.20;99.90
20398;DHT22;10358;49.590;11.030;2022-09-09T14:08:06;16.50;99.90
20398;DHT22;10358;49.590;11.030;2022-09-09T14:10:33;16.80;99.90
20398;DHT22;10358;49.590;11.030;2022-09-09T14:13:02;16.90;99.90
20398;DHT22;10358;49.590;11.030;2022-09-09T14:15:28;17.10;99.90
20398;DHT22;10358;49.590;11.030;2022-09-09T14:17:54;17.30;99.90
20398;DHT22;10358;49.590;11.030;2022-09-09T14:20:20;17.40;99.90
20398;DHT22;10358;49.590;11.030;2022-09-09T14:22:46;17.50;99.90
20398;DHT22;10358;49.590;11.030;2022-09-09T14:25:12;17.70;99.90
20398;DHT22;10358;49.590;11.030;2022-09-09T14:27:40;17.90;99.90
20398;DHT22;10358;49.590;11.030;2022-09-09T14:30:08;18.10;99.90
20398;DHT22;10358;49.590;11.030;2022-09-09T14:32:33;18.20;99.90
20398;DHT22;10358;49.590;11.030;2022-09-09T14:34:59;18.30;99.90
20398;DHT22;10358;49.590;11.030;2022-09-09T14:37:25;18.50;99.90
20398;DHT22;10358;49.590;11.030;2022-09-09T14:39:51;18.60;99.90
20398;DHT22;10358;49.590;11.030;2022-09-09T14:42:17;18.60;99.90
20398;DHT22;10358;49.590;11.030;2022-09-09T14:44:43;18.50;99.90
20398;DHT22;10358;49.590;11.030;2022-09-09T14:47:08;18.50;99.90
20398;DHT22;10358;49.590;11.030;2022-09-09T14:49:35;18.60;99.90
20398;DHT22;10358;49.590;11.030;2022-09-09T14:52:01;18.70;99.90
20398;DHT22;10358;49.590;11.030;2022-09-09T14:54:27;18.80;99.90
20398;DHT22;10358;49.590;11.030;2022-09-09T14:56:53;18.80;99.90
20398;DHT22;10358;49.590;11.030;2022-09-09T14:59:19;18.80;99.90
20398;DHT22;10358;49.590;11.030;2022-09-09T15:01:45;18.80;99.90
20398;DHT22;10358;49.590;11.030;2022-09-09T15:04:12;18.80;99.90
20398;DHT22;10358;49.590;11.030;2022-09-09T15:06:37;18.60;99.90
20398;DHT22;10358;49.590;11.030;2022-09-09T15:09:04;18.60;99.90
20398;DHT22;10358;49.590;11.030;2022-09-09T15:11:35;18.50;99.90
20398;DHT22;10358;49.590;11.030;2022-09-09T15:14:07;18.40;99.90
20398;DHT22;10358;49.590;11.030;2022-09-09T15:16:33;18.40;99.90
20398;DHT22;10358;49.590;11.030;2022-09-09T15:19:00;18.30;99.90
20398;DHT22;10358;49.590;11.030;2022-09-09T15:21:28;18.30;99.90
20398;DHT22;10358;49.590;11.030;2022-09-09T15:23:55;18.40;99.90
20398;DHT22;10358;49.590;11.030;2022-09-09T15:26:21;18.60;99.90
20398;DHT22;10358;49.590;11.030;2022-09-09T15:28:47;18.70;99.90
20398;DHT22;10358;49.590;11.030;2022-09-09T15:31:17;18.70;99.90
20398;DHT22;10358;49.590;11.030;2022-09-09T15:33:53;18.70;99.90
20398;DHT22;10358;49.590;11.030;2022-09-09T15:36:21;18.70;99.90
20398;DHT22;10358;49.590;11.030;2022-09-09T15:38:47;18.60;99.90
20398;DHT22;10358;49.590;11.030;2022-09-09T15:41:14;18.60;99.90
20398;DHT22;10358;49.590;11.030;2022-09-09T15:43:46;18.70;99.90
20398;DHT22;10358;49.590;11.030;2022-09-09T15:46:32;18.70;99.90
20398;DHT22;10358;49.590;11.030;2022-09-09T15:49:13;18.80;99.90
20398;DHT22;10358;49.590;11.030;2022-09-09T15:51:40;18.90;99.90
20398;DHT22;10358;49.590;11.030;2022-09-09T15:54:08;19.10;99.90
20398;DHT22;10358;49.590;11.030;2022-09-09T15:56:33;19.90;99.90
20398;DHT22;10358;49.590;11.030;2022-09-09T15:59:00;21.00;99.90
20398;DHT22;10358;49.590;11.030;2022-09-09T16:01:27;22.00;99.90
20398;DHT22;10358;49.590;11.030;2022-09-09T16:03:54;22.90;99.90
20398;DHT22;10358;49.590;11.030;2022-09-09T16:06:22;23.70;99.90
20398;DHT22;10358;49.590;11.030;2022-09-09T16:08:51;24.30;99.90
20398;DHT22;10358;49.590;11.030;2022-09-09T16:11:24;24.70;99.90
20398;DHT22;10358;49.590;11.030;2022-09-09T16:13:52;25.00;99.90
20398;DHT22;10358;49.590;11.030;2022-09-09T16:16:20;25.30;99.90
20398;DHT22;10358;49.590;11.030;2022-09-09T16:18:49;25.60;99.90
20398;DHT22;10358;49.590;11.030;2022-09-09T16:23:47;25.90;99.90
20398;DHT22;10358;49.590;11.030;2022-09-09T16:26:15;26.00;99.90
20398;DHT22;10358;49.590;11.030;2022-09-09T16:28:41;26.20;99.90
20398;DHT22;10358;49.590;11.030;2022-09-09T16:31:08;26.50;99.90
20398;DHT22;10358;49.590;11.030;2022-09-09T16:33:35;26.80;99.90
20398;DHT22;10358;49.590;11.030;2022-09-09T16:36:09;27.20;99.90
20398;DHT22;10358;49.590;11.030;2022-09-09T16:38:36;27.50;99.90
20398;DHT22;10358;49.590;11.030;2022-09-09T16:41:03;27.70;99.90
20398;DHT22;10358;49.590;11.030;2022-09-09T16:43:30;27.60;99.90
20398;DHT22;10358;49.590;11.030;2022-09-09T16:45:56;27.20;99.00
20398;DHT22;10358;49.590;11.030;2022-09-09T16:48:21;26.60;98.70
20398;DHT22;10358;49.590;11.030;2022-09-09T16:50:47;25.90;99.10
20398;DHT22;10358;49.590;11.030;2022-09-09T16:53:14;25.30;99.00
20398;DHT22;10358;49.590;11.030;2022-09-09T16:55:41;24.70;99.50
20398;DHT22;10358;49.590;11.030;2022-09-09T16:58:09;24.10;99.90
20398;DHT22;10358;49.590;11.030;2022-09-09T17:00:35;23.60;99.90
20398;DHT22;10358;49.590;11.030;2022-09-09T17:03:01;23.20;99.90
20398;DHT22;10358;49.590;11.030;2022-09-09T17:05:27;22.80;99.90
20398;DHT22;10358;49.590;11.030;2022-09-09T17:07:53;22.50;99.90
20398;DHT22;10358;49.590;11.030;2022-09-09T17:10:21;22.20;99.90
20398;DHT22;10358;49.590;11.030;2022-09-09T17:12:46;21.90;99.90
20398;DHT22;10358;49.590;11.030;2022-09-09T17:15:12;21.60;99.90
20398;DHT22;10358;49.590;11.030;2022-09-09T17:17:37;21.40;99.90
20398;DHT22;10358;49.590;11.030;2022-09-09T17:20:03;21.10;99.90
20398;DHT22;10358;49.590;11.030;2022-09-09T17:22:31;20.90;99.90
20398;DHT22;10358;49.590;11.030;2022-09-09T17:24:58;20.70;99.90
20398;DHT22;10358;49.590;11.030;2022-09-09T17:27:23;20.50;99.90
20398;DHT22;10358;49.590;11.030;2022-09-09T17:29:49;20.50;99.90
20398;DHT22;10358;49.590;11.030;2022-09-09T17:32:14;20.30;99.90
20398;DHT22;10358;49.590;11.030;2022-09-09T17:34:40;20.20;99.90
20398;DHT22;10358;49.590;11.030;2022-09-09T17:37:05;20.10;99.90
20398;DHT22;10358;49.590;11.030;2022-09-09T17:39:31;20.00;99.90
20398;DHT22;10358;49.590;11.030;2022-09-09T17:41:57;19.90;99.90
20398;DHT22;10358;49.590;11.030;2022-09-09T17:44:23;19.70;99.90